sensor_id;sensor_type;location;lat;lon;timestamp;P1;P2;P0
28647;PMS5003;17137;51.494;-0.262;2023-05-20T00:00:28;9;9;
28647;PMS5003;17137;51.494;-0.262;2023-05-20T00:00:58;9;9;
28647;PMS5003;17137;51.494;-0.262;2023-05-20T00:01:29;9;9;
28647;PMS5003;17137;51.494;-0.262;2023-05-20T00:01:59;9;9;
28647;PMS5003;17137;51.494;-0.262;2023-05-20T00:02:29;9;9;
28647;PMS5003;17137;51.494;-0.262;2023-05-20T00:02:59;9;9;
28647;PMS5003;17137;51.494;-0.262;2023-05-20T00:03:30;10;10;
28647;PMS5003;17137;51.494;-0.262;2023-05-20T00:04:00;10;10;
28647;PMS5003;17137;51.494;-0.262;2023-05-20T00:04:30;10;10;
28647;PMS5003;17137;51.494;-0.262;2023-05-20T00:05:00;10;10;
28647;PMS5003;17137;51.494;-0.262;2023-05-20T00:05:31;10;10;
28647;PMS5003;17137;51.494;-0.262;2023-05-20T00:06:01;10;10;
28647;PMS5003;17137;51.494;-0.262;2023-05-20T00:06:31;10;10;
28647;PMS5003;17137;51.494;-0.262;2023-05-20T00:07:01;10;10;
28647;PMS5003;17137;51.494;-0.262;2023-05-20T00:07:32;10;10;
28647;PMS5003;17137;51.494;-0.262;2023-05-20T00:08:02;9;9;
28647;PMS5003;17137;51.494;-0.262;2023-05-20T00:08:33;9;9;
28647;PMS5003;17137;51.494;-0.262;2023-05-20T00:09:03;9;9;
28647;PMS5003;17137;51.494;-0.262;2023-05-20T00:09:33;11;10;
28647;PMS5003;17137;51.494;-0.262;2023-05-20T00:10:03;11;10;
28647;PMS5003;17137;51.494;-0.262;2023-05-20T00:10:34;11;10;
28647;PMS5003;17137;51.494;-0.262;2023-05-20T00:11:05;10;9;
28647;PMS5003;17137;51.494;-0.262;2023-05-20T00:11:40;10;9;
28647;PMS5003;17137;51.494;-0.262;2023-05-20T00:12:10;10;9;
28647;PMS5003;17137;51.494;-0.262;2023-05-20T00:12:40;10;9;
28647;PMS5003;17137;51.494;-0.262;2023-05-20T00:13:11;10;9;
28647;PMS5003;17137;51.494;-0.262;2023-05-20T00:13:41;10;9;
28647;PMS5003;17137;51.494;-0.262;2023-05-20T00:14:16;11;9;
28647;PMS5003;17137;51.494;-0.262;2023-05-20T00:14:46;11;9;
28647;PMS5003;17137;51.494;-0.262;2023-05-20T00:15:16;11;9;
28647;PMS5003;17137;51.494;-0.262;2023-05-20T00:15:47;11;9;
28647;PMS5003;17137;51.494;-0.262;2023-05-20T00:16:17;11;9;
28647;PMS5003;17137;51.494;-0.262;2023-05-20T00:16:47;11;9;
28647;PMS5003;17137;51.494;-0.262;2023-05-20T00:17:17;12;9;
28647;PMS5003;17137;51.494;-0.262;2023-05-20T00:17:48;11;8;
28647;PMS5003;17137;51.494;-0.262;2023-05-20T00:18:19;11;8;
28647;PMS5003;17137;51.494;-0.262;2023-05-20T00:18:49;11;8;
28647;PMS5003;17137;51.494;-0.262;2023-05-20T00:19:19;12;9;
28647;PMS5003;17137;51.494;-0.262;2023-05-20T00:19:49;12;9;
28647;PMS5003;17137;51.494;-0.262;2023-05-20T00:20:19;12;9;
28647;PMS5003;17137;51.494;-0.262;2023-05-20T00:20:50;12;9;
28647;PMS5003;17137;51.494;-0.262;2023-05-20T00:21:20;12;9;
28647;PMS5003;17137;51.494;-0.262;2023-05-20T00:21:50;12;9;
28647;PMS5003;17137;51.494;-0.262;2023-05-20T00:22:21;12;9;
28647;PMS5003;17137;51.494;-0.262;2023-05-20T00:22:51;12;9;
28647;PMS5003;17137;51.494;-0.262;2023-05-20T00:23:21;12;9;
28647;PMS5003;17137;51.494;-0.262;2023-05-20T00:23:51;12;9;
28647;PMS5003;17137;51.494;-0.262;2023-05-20T00:24:22;12;9;
28647;PMS5003;17137;51.494;-0.262;2023-05-20T00:24:52;10;9;
28647;PMS5003;17137;51.494;-0.262;2023-05-20T00:25:23;10;9;
28647;PMS5003;17137;51.494;-0.262;2023-05-20T00:25:53;10;9;
28647;PMS5003;17137;51.494;-0.262;2023-05-20T00:26:23;10;8;
28647;PMS5003;17137;51.494;-0.262;2023-05-20T00:26:54;10;8;
28647;PMS5003;17137;51.494;-0.262;2023-05-20T00:27:24;10;8;
28647;PMS5003;17137;51.494;-0.262;2023-05-20T00:27:54;11;9;
28647;PMS5003;17137;51.494;-0.262;2023-05-20T00:28:29;11;9;
28647;PMS5003;17137;51.494;-0.262;2023-05-20T00:29:00;11;9;
28647;PMS5003;17137;51.494;-0.262;2023-05-20T00:29:30;13;8;
28647;PMS5003;17137;51.494;-0.262;2023-05-20T00:30:02;13;8;
28647;PMS5003;17137;51.494;-0.262;2023-05-20T00:30:32;13;8;
28647;PMS5003;17137;51.494;-0.262;2023-05-20T00:31:03;13;9;
28647;PMS5003;17137;51.494;-0.262;2023-05-20T00:31:33;13;9;
28647;PMS5003;17137;51.494;-0.262;2023-05-20T00:32:04;13;9;
28647;PMS5003;17137;51.494;-0.262;2023-05-20T00:32:34;11;8;
28647;PMS5003;17137;51.494;-0.262;2023-05-20T00:33:05;11;8;
28647;PMS5003;17137;51.494;-0.262;2023-05-20T00:33:35;11;8;
28647;PMS5003;17137;51.494;-0.262;2023-05-20T00:34:05;10;8;
28647;PMS5003;17137;51.494;-0.262;2023-05-20T00:34:36;10;8;
28647;PMS5003;17137;51.494;-0.262;2023-05-20T00:35:07;10;8;
28647;PMS5003;17137;51.494;-0.262;2023-05-20T00:35:37;10;8;
28647;PMS5003;17137;51.494;-0.262;2023-05-20T00:36:07;10;8;
28647;PMS5003;17137;51.494;-0.262;2023-05-20T00:36:38;10;8;
28647;PMS5003;17137;51.494;-0.262;2023-05-20T00:37:08;10;7;
28647;PMS5003;17137;51.494;-0.262;2023-05-20T00:37:38;10;7;
28647;PMS5003;17137;51.494;-0.262;2023-05-20T00:38:08;10;7;
28647;PMS5003;17137;51.494;-0.262;2023-05-20T00:38:39;11;8;
28647;PMS5003;17137;51.494;-0.262;2023-05-20T00:39:09;11;8;
28647;PMS5003;17137;51.494;-0.262;2023-05-20T00:39:39;11;8;
28647;PMS5003;17137;51.494;-0.262;2023-05-20T00:40:10;10;7;
28647;PMS5003;17137;51.494;-0.262;2023-05-20T00:40:40;10;7;
28647;PMS5003;17137;51.494;-0.262;2023-05-20T00:41:11;10;7;
28647;PMS5003;17137;51.494;-0.262;2023-05-20T00:41:41;10;8;
28647;PMS5003;17137;51.494;-0.262;2023-05-20T00:42:18;11;9;
28647;PMS5003;17137;51.494;-0.262;2023-05-20T00:42:49;11;9;
28647;PMS5003;17137;51.494;-0.262;2023-05-20T00:43:19;10;8;
28647;PMS5003;17137;51.494;-0.262;2023-05-20T00:43:52;10;8;
28647;PMS5003;17137;51.494;-0.262;2023-05-20T00:44:22;10;8;
28647;PMS5003;17137;51.494;-0.262;2023-05-20T00:44:52;8;8;
28647;PMS5003;17137;51.494;-0.262;2023-05-20T00:45:24;8;8;
28647;PMS5003;17137;51.494;-0.262;2023-05-20T00:45:54;8;8;
28647;PMS5003;17137;51.494;-0.262;2023-05-20T00:46:25;9;8;
28647;PMS5003;17137;51.494;-0.262;2023-05-20T00:46:56;9;8;
28647;PMS5003;17137;51.494;-0.262;2023-05-20T00:47:27;9;8;
28647;PMS5003;17137;51.494;-0.262;2023-05-20T00:48:00;9;8;
28647;PMS5003;17137;51.494;-0.262;2023-05-20T00:48:33;9;8;
28647;PMS5003;17137;51.494;-0.262;2023-05-20T00:49:08;9;8;
28647;PMS5003;17137;51.494;-0.262;2023-05-20T00:49:39;11;9;
28647;PMS5003;17137;51.494;-0.262;2023-05-20T00:50:09;11;9;
28647;PMS5003;17137;51.494;-0.262;2023-05-20T00:50:40;11;9;
28647;PMS5003;17137;51.494;-0.262;2023-05-20T00:51:11;11;9;
28647;PMS5003;17137;51.494;-0.262;2023-05-20T00:51:42;11;9;
28647;PMS5003;17137;51.494;-0.262;2023-05-20T00:52:13;11;9;
28647;PMS5003;17137;51.494;-0.262;2023-05-20T00:52:44;12;10;
28647;PMS5003;17137;51.494;-0.262;2023-05-20T00:53:14;12;10;
28647;PMS5003;17137;51.494;-0.262;2023-05-20T00:53:46;12;10;
28647;PMS5003;17137;51.494;-0.262;2023-05-20T00:54:16;12;10;
28647;PMS5003;17137;51.494;-0.262;2023-05-20T00:54:47;12;10;
28647;PMS5003;17137;51.494;-0.262;2023-05-20T00:55:18;12;10;
28647;PMS5003;17137;51.494;-0.262;2023-05-20T00:55:49;13;11;
28647;PMS5003;17137;51.494;-0.262;2023-05-20T00:56:19;13;11;
28647;PMS5003;17137;51.494;-0.262;2023-05-20T00:56:50;13;11;
28647;PMS5003;17137;51.494;-0.262;2023-05-20T00:57:20;12;10;
28647;PMS5003;17137;51.494;-0.262;2023-05-20T00:57:50;12;10;
28647;PMS5003;17137;51.494;-0.262;2023-05-20T00:58:21;12;10;
28647;PMS5003;17137;51.494;-0.262;2023-05-20T00:58:52;13;11;
28647;PMS5003;17137;51.494;-0.262;2023-05-20T00:59:22;13;11;
28647;PMS5003;17137;51.494;-0.262;2023-05-20T00:59:53;13;11;
28647;PMS5003;17137;51.494;-0.262;2023-05-20T01:00:24;13;11;
28647;PMS5003;17137;51.494;-0.262;2023-05-20T01:00:54;13;11;
28647;PMS5003;17137;51.494;-0.262;2023-05-20T01:01:25;13;11;
28647;PMS5003;17137;51.494;-0.262;2023-05-20T01:01:55;12;10;
28647;PMS5003;17137;51.494;-0.262;2023-05-20T01:02:26;12;10;
28647;PMS5003;17137;51.494;-0.262;2023-05-20T01:02:57;12;10;
28647;PMS5003;17137;51.494;-0.262;2023-05-20T01:03:27;12;10;
28647;PMS5003;17137;51.494;-0.262;2023-05-20T01:03:58;12;10;
28647;PMS5003;17137;51.494;-0.262;2023-05-20T01:04:29;12;10;
28647;PMS5003;17137;51.494;-0.262;2023-05-20T01:05:05;11;11;
28647;PMS5003;17137;51.494;-0.262;2023-05-20T01:05:36;11;11;
28647;PMS5003;17137;51.494;-0.262;2023-05-20T01:06:06;11;11;
28647;PMS5003;17137;51.494;-0.262;2023-05-20T01:06:36;10;10;
28647;PMS5003;17137;51.494;-0.262;2023-05-20T01:07:07;10;10;
28647;PMS5003;17137;51.494;-0.262;2023-05-20T01:07:37;10;10;
28647;PMS5003;17137;51.494;-0.262;2023-05-20T01:08:07;9;9;
28647;PMS5003;17137;51.494;-0.262;2023-05-20T01:08:38;9;9;
28647;PMS5003;17137;51.494;-0.262;2023-05-20T01:09:08;9;9;
28647;PMS5003;17137;51.494;-0.262;2023-05-20T01:09:38;8;8;
28647;PMS5003;17137;51.494;-0.262;2023-05-20T01:10:09;8;8;
28647;PMS5003;17137;51.494;-0.262;2023-05-20T01:10:40;8;8;
28647;PMS5003;17137;51.494;-0.262;2023-05-20T01:11:15;8;8;
28647;PMS5003;17137;51.494;-0.262;2023-05-20T01:11:51;8;8;
28647;PMS5003;17137;51.494;-0.262;2023-05-20T01:12:25;8;8;
28647;PMS5003;17137;51.494;-0.262;2023-05-20T01:13:00;8;8;
28647;PMS5003;17137;51.494;-0.262;2023-05-20T01:13:35;8;8;
28647;PMS5003;17137;51.494;-0.262;2023-05-20T01:14:16;8;8;
28647;PMS5003;17137;51.494;-0.262;2023-05-20T01:14:48;8;8;
28647;PMS5003;17137;51.494;-0.262;2023-05-20T01:15:19;8;8;
28647;PMS5003;17137;51.494;-0.262;2023-05-20T01:15:52;8;8;
28647;PMS5003;17137;51.494;-0.262;2023-05-20T01:16:24;6;6;
28647;PMS5003;17137;51.494;-0.262;2023-05-20T01:16:54;6;6;
28647;PMS5003;17137;51.494;-0.262;2023-05-20T01:17:28;6;6;
28647;PMS5003;17137;51.494;-0.262;2023-05-20T01:18:01;7;7;
28647;PMS5003;17137;51.494;-0.262;2023-05-20T01:18:36;8;8;
28647;PMS5003;17137;51.494;-0.262;2023-05-20T01:19:21;8;8;
28647;PMS5003;17137;51.494;-0.262;2023-05-20T01:19:59;8;8;
28647;PMS5003;17137;51.494;-0.262;2023-05-20T01:20:36;8;8;
28647;PMS5003;17137;51.494;-0.262;2023-05-20T01:21:07;8;8;
28647;PMS5003;17137;51.494;-0.262;2023-05-20T01:21:39;8;8;
28647;PMS5003;17137;51.494;-0.262;2023-05-20T01:22:12;8;8;
28647;PMS5003;17137;51.494;-0.262;2023-05-20T01:22:47;7;7;
28647;PMS5003;17137;51.494;-0.262;2023-05-20T01:23:19;6;6;
28647;PMS5003;17137;51.494;-0.262;2023-05-20T01:23:49;6;6;
28647;PMS5003;17137;51.494;-0.262;2023-05-20T01:24:19;6;6;
28647;PMS5003;17137;51.494;-0.262;2023-05-20T01:24:49;8;7;
28647;PMS5003;17137;51.494;-0.262;2023-05-20T01:25:20;8;7;
28647;PMS5003;17137;51.494;-0.262;2023-05-20T01:25:50;8;7;
28647;PMS5003;17137;51.494;-0.262;2023-05-20T01:26:20;9;9;
28647;PMS5003;17137;51.494;-0.262;2023-05-20T01:26:51;9;9;
28647;PMS5003;17137;51.494;-0.262;2023-05-20T01:27:22;9;9;
28647;PMS5003;17137;51.494;-0.262;2023-05-20T01:27:57;8;7;
28647;PMS5003;17137;51.494;-0.262;2023-05-20T01:28:27;8;7;
28647;PMS5003;17137;51.494;-0.262;2023-05-20T01:28:58;8;7;
28647;PMS5003;17137;51.494;-0.262;2023-05-20T01:29:28;9;7;
28647;PMS5003;17137;51.494;-0.262;2023-05-20T01:29:58;10;8;
28647;PMS5003;17137;51.494;-0.262;2023-05-20T01:30:29;10;8;
28647;PMS5003;17137;51.494;-0.262;2023-05-20T01:31:04;10;8;
28647;PMS5003;17137;51.494;-0.262;2023-05-20T01:31:39;9;7;
28647;PMS5003;17137;51.494;-0.262;2023-05-20T01:32:10;9;7;
28647;PMS5003;17137;51.494;-0.262;2023-05-20T01:32:45;9;7;
28647;PMS5003;17137;51.494;-0.262;2023-05-20T01:33:19;9;7;
28647;PMS5003;17137;51.494;-0.262;2023-05-20T01:33:53;9;7;
28647;PMS5003;17137;51.494;-0.262;2023-05-20T01:34:25;8;7;
28647;PMS5003;17137;51.494;-0.262;2023-05-20T01:34:56;8;7;
28647;PMS5003;17137;51.494;-0.262;2023-05-20T01:35:27;9;8;
28647;PMS5003;17137;51.494;-0.262;2023-05-20T01:35:58;9;7;
28647;PMS5003;17137;51.494;-0.262;2023-05-20T01:36:29;9;7;
28647;PMS5003;17137;51.494;-0.262;2023-05-20T01:37:01;9;7;
28647;PMS5003;17137;51.494;-0.262;2023-05-20T01:37:33;9;7;
28647;PMS5003;17137;51.494;-0.262;2023-05-20T01:38:08;9;7;
28647;PMS5003;17137;51.494;-0.262;2023-05-20T01:38:39;9;7;
28647;PMS5003;17137;51.494;-0.262;2023-05-20T01:39:11;10;8;
28647;PMS5003;17137;51.494;-0.262;2023-05-20T01:39:42;10;8;
28647;PMS5003;17137;51.494;-0.262;2023-05-20T01:40:14;10;8;
28647;PMS5003;17137;51.494;-0.262;2023-05-20T01:40:44;8;7;
28647;PMS5003;17137;51.494;-0.262;2023-05-20T01:41:16;8;7;
28647;PMS5003;17137;51.494;-0.262;2023-05-20T01:41:47;8;7;
28647;PMS5003;17137;51.494;-0.262;2023-05-20T01:42:19;8;7;
28647;PMS5003;17137;51.494;-0.262;2023-05-20T01:42:50;8;7;
28647;PMS5003;17137;51.494;-0.262;2023-05-20T01:43:23;8;7;
28647;PMS5003;17137;51.494;-0.262;2023-05-20T01:43:55;8;7;
28647;PMS5003;17137;51.494;-0.262;2023-05-20T01:44:26;8;7;
28647;PMS5003;17137;51.494;-0.262;2023-05-20T01:44:56;8;7;
28647;PMS5003;17137;51.494;-0.262;2023-05-20T01:45:28;7;7;
28647;PMS5003;17137;51.494;-0.262;2023-05-20T01:45:59;7;7;
28647;PMS5003;17137;51.494;-0.262;2023-05-20T01:46:31;7;7;
28647;PMS5003;17137;51.494;-0.262;2023-05-20T01:47:02;7;7;
28647;PMS5003;17137;51.494;-0.262;2023-05-20T01:47:33;7;7;
28647;PMS5003;17137;51.494;-0.262;2023-05-20T01:48:03;7;7;
28647;PMS5003;17137;51.494;-0.262;2023-05-20T01:48:34;7;7;
28647;PMS5003;17137;51.494;-0.262;2023-05-20T01:49:04;7;7;
28647;PMS5003;17137;51.494;-0.262;2023-05-20T01:49:34;7;7;
28647;PMS5003;17137;51.494;-0.262;2023-05-20T01:50:05;7;7;
28647;PMS5003;17137;51.494;-0.262;2023-05-20T01:50:36;7;7;
28647;PMS5003;17137;51.494;-0.262;2023-05-20T01:51:07;7;7;
28647;PMS5003;17137;51.494;-0.262;2023-05-20T01:51:38;7;7;
28647;PMS5003;17137;51.494;-0.262;2023-05-20T01:52:08;7;7;
28647;PMS5003;17137;51.494;-0.262;2023-05-20T01:52:38;7;7;
28647;PMS5003;17137;51.494;-0.262;2023-05-20T01:53:09;8;8;
28647;PMS5003;17137;51.494;-0.262;2023-05-20T01:53:39;8;8;
28647;PMS5003;17137;51.494;-0.262;2023-05-20T01:54:09;8;8;
28647;PMS5003;17137;51.494;-0.262;2023-05-20T01:54:39;8;8;
28647;PMS5003;17137;51.494;-0.262;2023-05-20T01:55:10;8;8;
28647;PMS5003;17137;51.494;-0.262;2023-05-20T01:55:40;8;8;
28647;PMS5003;17137;51.494;-0.262;2023-05-20T01:56:10;8;8;
28647;PMS5003;17137;51.494;-0.262;2023-05-20T01:56:40;8;8;
28647;PMS5003;17137;51.494;-0.262;2023-05-20T01:57:11;8;8;
28647;PMS5003;17137;51.494;-0.262;2023-05-20T01:57:41;9;9;
28647;PMS5003;17137;51.494;-0.262;2023-05-20T01:58:11;9;9;
28647;PMS5003;17137;51.494;-0.262;2023-05-20T01:58:41;9;9;
28647;PMS5003;17137;51.494;-0.262;2023-05-20T01:59:12;9;9;
28647;PMS5003;17137;51.494;-0.262;2023-05-20T01:59:42;9;9;
28647;PMS5003;17137;51.494;-0.262;2023-05-20T02:00:12;9;9;
28647;PMS5003;17137;51.494;-0.262;2023-05-20T02:02:02;9;9;
28647;PMS5003;17137;51.494;-0.262;2023-05-20T02:02:37;9;9;
28647;PMS5003;17137;51.494;-0.262;2023-05-20T02:03:13;10;9;
28647;PMS5003;17137;51.494;-0.262;2023-05-20T02:03:53;10;9;
28647;PMS5003;17137;51.494;-0.262;2023-05-20T02:04:34;10;9;
28647;PMS5003;17137;51.494;-0.262;2023-05-20T02:05:16;10;9;
28647;PMS5003;17137;51.494;-0.262;2023-05-20T02:05:57;10;9;
28647;PMS5003;17137;51.494;-0.262;2023-05-20T02:06:37;10;9;
28647;PMS5003;17137;51.494;-0.262;2023-05-20T02:07:17;11;10;
28647;PMS5003;17137;51.494;-0.262;2023-05-20T02:07:58;11;10;
28647;PMS5003;17137;51.494;-0.262;2023-05-20T02:08:38;11;10;
28647;PMS5003;17137;51.494;-0.262;2023-05-20T02:09:14;11;9;
28647;PMS5003;17137;51.494;-0.262;2023-05-20T02:09:44;11;9;
28647;PMS5003;17137;51.494;-0.262;2023-05-20T02:10:15;11;9;
28647;PMS5003;17137;51.494;-0.262;2023-05-20T02:10:46;10;9;
28647;PMS5003;17137;51.494;-0.262;2023-05-20T02:11:17;10;9;
28647;PMS5003;17137;51.494;-0.262;2023-05-20T02:11:47;10;9;
28647;PMS5003;17137;51.494;-0.262;2023-05-20T02:12:17;10;8;
28647;PMS5003;17137;51.494;-0.262;2023-05-20T02:12:47;10;8;
28647;PMS5003;17137;51.494;-0.262;2023-05-20T02:13:18;10;8;
28647;PMS5003;17137;51.494;-0.262;2023-05-20T02:13:48;10;9;
28647;PMS5003;17137;51.494;-0.262;2023-05-20T02:14:19;10;9;
28647;PMS5003;17137;51.494;-0.262;2023-05-20T02:14:50;10;9;
28647;PMS5003;17137;51.494;-0.262;2023-05-20T02:15:20;9;8;
28647;PMS5003;17137;51.494;-0.262;2023-05-20T02:15:50;9;8;
28647;PMS5003;17137;51.494;-0.262;2023-05-20T02:16:20;9;8;
28647;PMS5003;17137;51.494;-0.262;2023-05-20T02:16:50;9;8;
28647;PMS5003;17137;51.494;-0.262;2023-05-20T02:17:21;9;8;
28647;PMS5003;17137;51.494;-0.262;2023-05-20T02:17:51;9;8;
28647;PMS5003;17137;51.494;-0.262;2023-05-20T02:18:21;8;7;
28647;PMS5003;17137;51.494;-0.262;2023-05-20T02:18:52;8;7;
28647;PMS5003;17137;51.494;-0.262;2023-05-20T02:19:22;8;7;
28647;PMS5003;17137;51.494;-0.262;2023-05-20T02:19:52;8;8;
28647;PMS5003;17137;51.494;-0.262;2023-05-20T02:20:22;8;8;
28647;PMS5003;17137;51.494;-0.262;2023-05-20T02:20:53;8;8;
28647;PMS5003;17137;51.494;-0.262;2023-05-20T02:21:23;8;8;
28647;PMS5003;17137;51.494;-0.262;2023-05-20T02:21:53;8;8;
28647;PMS5003;17137;51.494;-0.262;2023-05-20T02:22:24;8;8;
28647;PMS5003;17137;51.494;-0.262;2023-05-20T02:22:54;7;7;
28647;PMS5003;17137;51.494;-0.262;2023-05-20T02:23:24;7;7;
28647;PMS5003;17137;51.494;-0.262;2023-05-20T02:23:54;7;7;
28647;PMS5003;17137;51.494;-0.262;2023-05-20T02:24:25;7;7;
28647;PMS5003;17137;51.494;-0.262;2023-05-20T02:24:55;7;7;
28647;PMS5003;17137;51.494;-0.262;2023-05-20T02:25:25;7;7;
28647;PMS5003;17137;51.494;-0.262;2023-05-20T02:25:56;7;7;
28647;PMS5003;17137;51.494;-0.262;2023-05-20T02:26:26;7;7;
28647;PMS5003;17137;51.494;-0.262;2023-05-20T02:26:56;7;7;
28647;PMS5003;17137;51.494;-0.262;2023-05-20T02:27:26;9;9;
28647;PMS5003;17137;51.494;-0.262;2023-05-20T02:27:56;9;9;
28647;PMS5003;17137;51.494;-0.262;2023-05-20T02:28:27;9;9;
28647;PMS5003;17137;51.494;-0.262;2023-05-20T02:28:57;8;8;
28647;PMS5003;17137;51.494;-0.262;2023-05-20T02:29:27;8;8;
28647;PMS5003;17137;51.494;-0.262;2023-05-20T02:29:58;8;8;
28647;PMS5003;17137;51.494;-0.262;2023-05-20T02:30:29;9;9;
28647;PMS5003;17137;51.494;-0.262;2023-05-20T02:30:59;9;9;
28647;PMS5003;17137;51.494;-0.262;2023-05-20T02:31:29;9;9;
28647;PMS5003;17137;51.494;-0.262;2023-05-20T02:31:59;9;9;
28647;PMS5003;17137;51.494;-0.262;2023-05-20T02:32:30;9;9;
28647;PMS5003;17137;51.494;-0.262;2023-05-20T02:33:00;9;9;
28647;PMS5003;17137;51.494;-0.262;2023-05-20T02:33:31;9;9;
28647;PMS5003;17137;51.494;-0.262;2023-05-20T02:34:01;9;9;
28647;PMS5003;17137;51.494;-0.262;2023-05-20T02:34:31;9;9;
28647;PMS5003;17137;51.494;-0.262;2023-05-20T02:35:02;10;10;
28647;PMS5003;17137;51.494;-0.262;2023-05-20T02:35:32;10;10;
28647;PMS5003;17137;51.494;-0.262;2023-05-20T02:36:02;10;10;
28647;PMS5003;17137;51.494;-0.262;2023-05-20T02:36:38;10;10;
28647;PMS5003;17137;51.494;-0.262;2023-05-20T02:37:08;10;10;
28647;PMS5003;17137;51.494;-0.262;2023-05-20T02:37:38;10;10;
28647;PMS5003;17137;51.494;-0.262;2023-05-20T02:38:09;10;10;
28647;PMS5003;17137;51.494;-0.262;2023-05-20T02:38:39;10;10;
28647;PMS5003;17137;51.494;-0.262;2023-05-20T02:39:14;10;10;
28647;PMS5003;17137;51.494;-0.262;2023-05-20T02:39:45;10;10;
28647;PMS5003;17137;51.494;-0.262;2023-05-20T02:40:15;10;10;
28647;PMS5003;17137;51.494;-0.262;2023-05-20T02:40:46;10;10;
28647;PMS5003;17137;51.494;-0.262;2023-05-20T02:41:17;10;10;
28647;PMS5003;17137;51.494;-0.262;2023-05-20T02:41:47;10;10;
28647;PMS5003;17137;51.494;-0.262;2023-05-20T02:42:17;10;10;
28647;PMS5003;17137;51.494;-0.262;2023-05-20T02:42:48;9;9;
28647;PMS5003;17137;51.494;-0.262;2023-05-20T02:43:18;9;9;
28647;PMS5003;17137;51.494;-0.262;2023-05-20T02:43:49;9;9;
28647;PMS5003;17137;51.494;-0.262;2023-05-20T02:44:19;10;9;
28647;PMS5003;17137;51.494;-0.262;2023-05-20T02:44:49;10;9;
28647;PMS5003;17137;51.494;-0.262;2023-05-20T02:45:19;10;9;
28647;PMS5003;17137;51.494;-0.262;2023-05-20T02:45:50;11;10;
28647;PMS5003;17137;51.494;-0.262;2023-05-20T02:46:20;11;10;
28647;PMS5003;17137;51.494;-0.262;2023-05-20T02:46:50;11;10;
28647;PMS5003;17137;51.494;-0.262;2023-05-20T02:47:20;11;10;
28647;PMS5003;17137;51.494;-0.262;2023-05-20T02:47:51;11;10;
28647;PMS5003;17137;51.494;-0.262;2023-05-20T02:48:21;11;10;
28647;PMS5003;17137;51.494;-0.262;2023-05-20T02:48:51;11;10;
28647;PMS5003;17137;51.494;-0.262;2023-05-20T02:49:21;11;10;
28647;PMS5003;17137;51.494;-0.262;2023-05-20T02:49:52;11;10;
28647;PMS5003;17137;51.494;-0.262;2023-05-20T02:50:22;11;9;
28647;PMS5003;17137;51.494;-0.262;2023-05-20T02:50:52;11;9;
28647;PMS5003;17137;51.494;-0.262;2023-05-20T02:51:22;11;9;
28647;PMS5003;17137;51.494;-0.262;2023-05-20T02:51:53;11;10;
28647;PMS5003;17137;51.494;-0.262;2023-05-20T02:52:24;11;10;
28647;PMS5003;17137;51.494;-0.262;2023-05-20T02:52:54;11;10;
28647;PMS5003;17137;51.494;-0.262;2023-05-20T02:53:24;10;9;
28647;PMS5003;17137;51.494;-0.262;2023-05-20T02:53:54;10;9;
28647;PMS5003;17137;51.494;-0.262;2023-05-20T02:54:25;10;9;
28647;PMS5003;17137;51.494;-0.262;2023-05-20T02:54:55;11;10;
28647;PMS5003;17137;51.494;-0.262;2023-05-20T02:55:25;11;10;
28647;PMS5003;17137;51.494;-0.262;2023-05-20T02:55:56;11;10;
28647;PMS5003;17137;51.494;-0.262;2023-05-20T02:56:26;11;10;
28647;PMS5003;17137;51.494;-0.262;2023-05-20T02:56:57;11;10;
28647;PMS5003;17137;51.494;-0.262;2023-05-20T02:57:56;11;10;
28647;PMS5003;17137;51.494;-0.262;2023-05-20T02:58:26;11;10;
28647;PMS5003;17137;51.494;-0.262;2023-05-20T02:58:56;11;10;
28647;PMS5003;17137;51.494;-0.262;2023-05-20T02:59:27;10;10;
28647;PMS5003;17137;51.494;-0.262;2023-05-20T02:59:57;10;10;
28647;PMS5003;17137;51.494;-0.262;2023-05-20T03:00:27;10;10;
28647;PMS5003;17137;51.494;-0.262;2023-05-20T03:00:57;10;10;
28647;PMS5003;17137;51.494;-0.262;2023-05-20T03:01:28;10;10;
28647;PMS5003;17137;51.494;-0.262;2023-05-20T03:01:58;10;10;
28647;PMS5003;17137;51.494;-0.262;2023-05-20T03:02:28;10;10;
28647;PMS5003;17137;51.494;-0.262;2023-05-20T03:02:58;10;10;
28647;PMS5003;17137;51.494;-0.262;2023-05-20T03:03:29;10;10;
28647;PMS5003;17137;51.494;-0.262;2023-05-20T03:03:59;10;10;
28647;PMS5003;17137;51.494;-0.262;2023-05-20T03:04:30;10;10;
28647;PMS5003;17137;51.494;-0.262;2023-05-20T03:05:01;10;10;
28647;PMS5003;17137;51.494;-0.262;2023-05-20T03:05:31;10;10;
28647;PMS5003;17137;51.494;-0.262;2023-05-20T03:06:02;9;9;
28647;PMS5003;17137;51.494;-0.262;2023-05-20T03:06:32;9;9;
28647;PMS5003;17137;51.494;-0.262;2023-05-20T03:07:03;9;9;
28647;PMS5003;17137;51.494;-0.262;2023-05-20T03:07:34;10;10;
28647;PMS5003;17137;51.494;-0.262;2023-05-20T03:08:07;10;10;
28647;PMS5003;17137;51.494;-0.262;2023-05-20T03:08:38;10;10;
28647;PMS5003;17137;51.494;-0.262;2023-05-20T03:09:09;10;10;
28647;PMS5003;17137;51.494;-0.262;2023-05-20T03:09:39;10;10;
28647;PMS5003;17137;51.494;-0.262;2023-05-20T03:10:09;10;10;
28647;PMS5003;17137;51.494;-0.262;2023-05-20T03:10:40;10;10;
28647;PMS5003;17137;51.494;-0.262;2023-05-20T03:11:10;9;9;
28647;PMS5003;17137;51.494;-0.262;2023-05-20T03:11:40;9;9;
28647;PMS5003;17137;51.494;-0.262;2023-05-20T03:12:10;9;9;
28647;PMS5003;17137;51.494;-0.262;2023-05-20T03:12:41;9;9;
28647;PMS5003;17137;51.494;-0.262;2023-05-20T03:13:11;9;9;
28647;PMS5003;17137;51.494;-0.262;2023-05-20T03:13:41;9;9;
28647;PMS5003;17137;51.494;-0.262;2023-05-20T03:14:12;9;9;
28647;PMS5003;17137;51.494;-0.262;2023-05-20T03:14:42;10;10;
28647;PMS5003;17137;51.494;-0.262;2023-05-20T03:15:12;10;10;
28647;PMS5003;17137;51.494;-0.262;2023-05-20T03:15:43;10;10;
28647;PMS5003;17137;51.494;-0.262;2023-05-20T03:16:13;8;8;
28647;PMS5003;17137;51.494;-0.262;2023-05-20T03:16:43;8;8;
28647;PMS5003;17137;51.494;-0.262;2023-05-20T03:17:14;8;8;
28647;PMS5003;17137;51.494;-0.262;2023-05-20T03:17:44;9;7;
28647;PMS5003;17137;51.494;-0.262;2023-05-20T03:18:14;9;7;
28647;PMS5003;17137;51.494;-0.262;2023-05-20T03:18:45;9;7;
28647;PMS5003;17137;51.494;-0.262;2023-05-20T03:19:15;9;7;
28647;PMS5003;17137;51.494;-0.262;2023-05-20T03:19:45;10;8;
28647;PMS5003;17137;51.494;-0.262;2023-05-20T03:20:16;10;8;
28647;PMS5003;17137;51.494;-0.262;2023-05-20T03:20:46;11;9;
28647;PMS5003;17137;51.494;-0.262;2023-05-20T03:21:16;11;9;
28647;PMS5003;17137;51.494;-0.262;2023-05-20T03:21:46;10;8;
28647;PMS5003;17137;51.494;-0.262;2023-05-20T03:22:16;11;9;
28647;PMS5003;17137;51.494;-0.262;2023-05-20T03:22:47;11;9;
28647;PMS5003;17137;51.494;-0.262;2023-05-20T03:23:17;11;9;
28647;PMS5003;17137;51.494;-0.262;2023-05-20T03:23:47;11;9;
28647;PMS5003;17137;51.494;-0.262;2023-05-20T03:24:18;11;9;
28647;PMS5003;17137;51.494;-0.262;2023-05-20T03:24:48;11;9;
28647;PMS5003;17137;51.494;-0.262;2023-05-20T03:25:19;11;9;
28647;PMS5003;17137;51.494;-0.262;2023-05-20T03:25:50;11;9;
28647;PMS5003;17137;51.494;-0.262;2023-05-20T03:26:21;11;9;
28647;PMS5003;17137;51.494;-0.262;2023-05-20T03:26:51;12;10;
28647;PMS5003;17137;51.494;-0.262;2023-05-20T03:27:21;12;10;
28647;PMS5003;17137;51.494;-0.262;2023-05-20T03:27:52;12;10;
28647;PMS5003;17137;51.494;-0.262;2023-05-20T03:28:27;11;9;
28647;PMS5003;17137;51.494;-0.262;2023-05-20T03:28:58;11;9;
28647;PMS5003;17137;51.494;-0.262;2023-05-20T03:29:28;11;9;